sensor_id;sensor_type;location;lat;lon;timestamp;P1;durP1;ratioP1;P2;durP2;ratioP2
10045;SDS011;5063;50.878;4.742;2023-07-24T00:02:07;5.35;;;4.43;;
10045;SDS011;5063;50.878;4.742;2023-07-24T00:04:33;8.37;;;4.87;;
10045;SDS011;5063;50.878;4.742;2023-07-24T00:06:59;7.50;;;4.97;;
10045;SDS011;5063;50.878;4.742;2023-07-24T00:09:25;10.23;;;5.40;;
10045;SDS011;5063;50.878;4.742;2023-07-24T00:11:51;6.47;;;4.30;;
10045;SDS011;5063;50.878;4.742;2023-07-24T00:14:17;8.63;;;4.50;;
10045;SDS011;5063;50.878;4.742;2023-07-24T00:16:42;10.37;;;5.30;;
10045;SDS011;5063;50.878;4.742;2023-07-24T00:19:08;6.70;;;4.57;;
10045;SDS011;5063;50.878;4.742;2023-07-24T00:21:34;9.80;;;5.60;;
10045;SDS011;5063;50.878;4.742;2023-07-24T00:24:00;14.27;;;5.70;;
10045;SDS011;5063;50.878;4.742;2023-07-24T00:26:25;7.90;;;4.77;;
10045;SDS011;5063;50.878;4.742;2023-07-24T00:28:51;8.87;;;5.00;;
10045;SDS011;5063;50.878;4.742;2023-07-24T00:31:17;5.83;;;5.20;;
10045;SDS011;5063;50.878;4.742;2023-07-24T00:33:42;10.40;;;5.00;;
10045;SDS011;5063;50.878;4.742;2023-07-24T00:36:08;6.37;;;5.10;;
10045;SDS011;5063;50.878;4.742;2023-07-24T00:38:34;6.27;;;5.40;;
10045;SDS011;5063;50.878;4.742;2023-07-24T00:40:59;6.47;;;5.03;;
10045;SDS011;5063;50.878;4.742;2023-07-24T00:43:25;11.75;;;5.35;;
10045;SDS011;5063;50.878;4.742;2023-07-24T00:45:51;8.35;;;4.85;;
10045;SDS011;5063;50.878;4.742;2023-07-24T00:48:17;8.70;;;5.43;;
10045;SDS011;5063;50.878;4.742;2023-07-24T00:50:43;8.43;;;5.65;;
10045;SDS011;5063;50.878;4.742;2023-07-24T00:53:11;10.47;;;5.77;;
10045;SDS011;5063;50.878;4.742;2023-07-24T00:55:38;7.53;;;5.50;;
10045;SDS011;5063;50.878;4.742;2023-07-24T00:58:04;6.35;;;5.32;;
10045;SDS011;5063;50.878;4.742;2023-07-24T01:00:30;10.10;;;5.03;;
10045;SDS011;5063;50.878;4.742;2023-07-24T01:02:56;5.95;;;5.00;;
10045;SDS011;5063;50.878;4.742;2023-07-24T01:05:24;8.07;;;5.28;;
10045;SDS011;5063;50.878;4.742;2023-07-24T01:07:51;6.20;;;4.57;;
10045;SDS011;5063;50.878;4.742;2023-07-24T01:10:17;11.90;;;4.73;;
10045;SDS011;5063;50.878;4.742;2023-07-24T01:15:10;4.80;;;4.25;;
10045;SDS011;5063;50.878;4.742;2023-07-24T01:17:53;6.10;;;4.82;;
10045;SDS011;5063;50.878;4.742;2023-07-24T01:20:23;5.60;;;4.80;;
10045;SDS011;5063;50.878;4.742;2023-07-24T01:25:33;7.85;;;4.65;;
10045;SDS011;5063;50.878;4.742;2023-07-24T01:28:06;6.75;;;4.78;;
10045;SDS011;5063;50.878;4.742;2023-07-24T01:30:33;6.80;;;4.75;;
10045;SDS011;5063;50.878;4.742;2023-07-24T01:32:58;6.20;;;4.53;;
10045;SDS011;5063;50.878;4.742;2023-07-24T01:35:24;8.65;;;4.45;;
10045;SDS011;5063;50.878;4.742;2023-07-24T01:37:52;10.25;;;5.30;;
10045;SDS011;5063;50.878;4.742;2023-07-24T01:40:20;7.15;;;4.65;;
10045;SDS011;5063;50.878;4.742;2023-07-24T01:42:47;6.82;;;4.68;;
10045;SDS011;5063;50.878;4.742;2023-07-24T01:45:14;10.88;;;4.85;;
10045;SDS011;5063;50.878;4.742;2023-07-24T01:47:40;6.75;;;5.55;;
10045;SDS011;5063;50.878;4.742;2023-07-24T01:50:06;6.50;;;5.07;;
10045;SDS011;5063;50.878;4.742;2023-07-24T01:52:32;7.55;;;4.45;;
10045;SDS011;5063;50.878;4.742;2023-07-24T01:54:58;10.23;;;5.68;;
10045;SDS011;5063;50.878;4.742;2023-07-24T01:57:23;7.57;;;4.90;;
10045;SDS011;5063;50.878;4.742;2023-07-24T01:59:49;8.93;;;5.13;;
10045;SDS011;5063;50.878;4.742;2023-07-24T02:02:15;8.80;;;5.37;;
10045;SDS011;5063;50.878;4.742;2023-07-24T02:04:40;7.67;;;5.17;;
10045;SDS011;5063;50.878;4.742;2023-07-24T02:07:06;9.63;;;5.50;;
10045;SDS011;5063;50.878;4.742;2023-07-24T02:09:32;7.90;;;5.37;;
10045;SDS011;5063;50.878;4.742;2023-07-24T02:11:57;8.38;;;5.20;;
10045;SDS011;5063;50.878;4.742;2023-07-24T02:14:23;8.45;;;5.38;;
10045;SDS011;5063;50.878;4.742;2023-07-24T02:16:49;14.33;;;5.67;;
10045;SDS011;5063;50.878;4.742;2023-07-24T02:19:15;6.73;;;4.80;;
10045;SDS011;5063;50.878;4.742;2023-07-24T02:21:40;6.23;;;4.40;;
10045;SDS011;5063;50.878;4.742;2023-07-24T02:24:06;6.82;;;4.43;;
10045;SDS011;5063;50.878;4.742;2023-07-24T02:26:32;9.17;;;5.20;;
10045;SDS011;5063;50.878;4.742;2023-07-24T02:28:57;7.70;;;4.80;;
10045;SDS011;5063;50.878;4.742;2023-07-24T02:31:23;6.15;;;4.70;;
10045;SDS011;5063;50.878;4.742;2023-07-24T02:33:49;6.20;;;4.73;;
10045;SDS011;5063;50.878;4.742;2023-07-24T02:36:14;8.97;;;5.00;;
10045;SDS011;5063;50.878;4.742;2023-07-24T02:38:40;9.63;;;5.07;;
10045;SDS011;5063;50.878;4.742;2023-07-24T02:41:06;10.75;;;5.55;;
10045;SDS011;5063;50.878;4.742;2023-07-24T02:43:31;7.10;;;4.93;;
10045;SDS011;5063;50.878;4.742;2023-07-24T02:46:03;7.20;;;4.70;;
10045;SDS011;5063;50.878;4.742;2023-07-24T02:48:29;5.68;;;4.53;;
10045;SDS011;5063;50.878;4.742;2023-07-24T02:50:55;8.23;;;4.77;;
10045;SDS011;5063;50.878;4.742;2023-07-24T02:53:20;5.83;;;4.53;;
10045;SDS011;5063;50.878;4.742;2023-07-24T02:55:46;6.70;;;4.35;;
10045;SDS011;5063;50.878;4.742;2023-07-24T02:58:12;5.47;;;4.57;;
10045;SDS011;5063;50.878;4.742;2023-07-24T03:00:39;5.97;;;3.97;;
10045;SDS011;5063;50.878;4.742;2023-07-24T03:03:05;5.13;;;4.17;;
10045;SDS011;5063;50.878;4.742;2023-07-24T03:05:30;5.50;;;4.90;;
10045;SDS011;5063;50.878;4.742;2023-07-24T03:07:56;10.70;;;4.40;;
10045;SDS011;5063;50.878;4.742;2023-07-24T03:10:22;6.78;;;3.80;;
10045;SDS011;5063;50.878;4.742;2023-07-24T03:12:48;5.30;;;4.10;;
10045;SDS011;5063;50.878;4.742;2023-07-24T03:15:14;7.80;;;4.20;;
10045;SDS011;5063;50.878;4.742;2023-07-24T03:17:40;4.33;;;3.63;;
10045;SDS011;5063;50.878;4.742;2023-07-24T03:20:09;6.33;;;3.90;;
10045;SDS011;5063;50.878;4.742;2023-07-24T03:22:44;5.68;;;3.35;;
10045;SDS011;5063;50.878;4.742;2023-07-24T03:25:10;5.00;;;3.70;;
10045;SDS011;5063;50.878;4.742;2023-07-24T03:27:36;4.75;;;3.83;;
10045;SDS011;5063;50.878;4.742;2023-07-24T03:30:02;5.80;;;3.47;;
10045;SDS011;5063;50.878;4.742;2023-07-24T03:32:28;4.40;;;3.13;;
10045;SDS011;5063;50.878;4.742;2023-07-24T03:34:54;5.40;;;3.80;;
10045;SDS011;5063;50.878;4.742;2023-07-24T03:37:20;5.20;;;3.27;;
10045;SDS011;5063;50.878;4.742;2023-07-24T03:39:45;5.23;;;3.47;;
10045;SDS011;5063;50.878;4.742;2023-07-24T03:42:11;3.97;;;3.27;;
10045;SDS011;5063;50.878;4.742;2023-07-24T03:44:40;5.50;;;3.30;;
10045;SDS011;5063;50.878;4.742;2023-07-24T03:47:06;6.57;;;3.40;;
10045;SDS011;5063;50.878;4.742;2023-07-24T03:49:33;5.57;;;3.83;;
10045;SDS011;5063;50.878;4.742;2023-07-24T03:51:59;4.03;;;2.37;;
10045;SDS011;5063;50.878;4.742;2023-07-24T03:54:24;1.93;;;1.83;;
10045;SDS011;5063;50.878;4.742;2023-07-24T03:56:50;1.90;;;1.77;;
10045;SDS011;5063;50.878;4.742;2023-07-24T03:59:16;1.87;;;1.60;;
10045;SDS011;5063;50.878;4.742;2023-07-24T04:01:41;1.90;;;1.80;;
10045;SDS011;5063;50.878;4.742;2023-07-24T04:04:07;1.30;;;1.20;;
10045;SDS011;5063;50.878;4.742;2023-07-24T04:06:33;2.17;;;1.70;;
10045;SDS011;5063;50.878;4.742;2023-07-24T04:08:58;1.47;;;1.30;;
10045;SDS011;5063;50.878;4.742;2023-07-24T04:11:24;3.97;;;1.70;;
10045;SDS011;5063;50.878;4.742;2023-07-24T04:13:50;2.30;;;1.53;;
10045;SDS011;5063;50.878;4.742;2023-07-24T04:16:15;1.83;;;1.67;;
10045;SDS011;5063;50.878;4.742;2023-07-24T04:18:41;2.60;;;1.70;;
10045;SDS011;5063;50.878;4.742;2023-07-24T04:21:07;1.83;;;1.60;;
10045;SDS011;5063;50.878;4.742;2023-07-24T04:23:32;2.10;;;1.60;;
10045;SDS011;5063;50.878;4.742;2023-07-24T04:25:58;1.93;;;1.53;;
10045;SDS011;5063;50.878;4.742;2023-07-24T04:28:24;1.50;;;1.40;;
10045;SDS011;5063;50.878;4.742;2023-07-24T04:30:50;1.70;;;1.60;;
10045;SDS011;5063;50.878;4.742;2023-07-24T04:33:15;1.97;;;1.70;;
10045;SDS011;5063;50.878;4.742;2023-07-24T04:35:41;2.70;;;1.50;;
10045;SDS011;5063;50.878;4.742;2023-07-24T04:38:07;2.33;;;2.00;;
10045;SDS011;5063;50.878;4.742;2023-07-24T04:40:33;2.20;;;2.00;;
10045;SDS011;5063;50.878;4.742;2023-07-24T04:42:58;4.03;;;1.97;;
10045;SDS011;5063;50.878;4.742;2023-07-24T04:45:24;4.40;;;1.50;;
10045;SDS011;5063;50.878;4.742;2023-07-24T04:47:50;1.23;;;1.10;;
10045;SDS011;5063;50.878;4.742;2023-07-24T04:50:15;2.53;;;1.53;;
10045;SDS011;5063;50.878;4.742;2023-07-24T04:52:41;1.97;;;1.63;;
10045;SDS011;5063;50.878;4.742;2023-07-24T04:55:07;1.60;;;1.50;;
10045;SDS011;5063;50.878;4.742;2023-07-24T04:57:33;1.40;;;1.30;;
10045;SDS011;5063;50.878;4.742;2023-07-24T04:59:58;2.40;;;1.57;;
10045;SDS011;5063;50.878;4.742;2023-07-24T05:02:24;3.57;;;1.40;;
10045;SDS011;5063;50.878;4.742;2023-07-24T05:04:50;1.67;;;1.40;;
10045;SDS011;5063;50.878;4.742;2023-07-24T05:07:15;1.70;;;1.60;;
10045;SDS011;5063;50.878;4.742;2023-07-24T05:09:41;1.80;;;1.70;;
10045;SDS011;5063;50.878;4.742;2023-07-24T05:12:07;2.67;;;1.70;;
10045;SDS011;5063;50.878;4.742;2023-07-24T05:14:32;1.58;;;1.30;;
10045;SDS011;5063;50.878;4.742;2023-07-24T05:16:58;1.63;;;1.53;;
10045;SDS011;5063;50.878;4.742;2023-07-24T05:19:24;1.95;;;1.50;;
10045;SDS011;5063;50.878;4.742;2023-07-24T05:21:49;2.43;;;1.37;;
10045;SDS011;5063;50.878;4.742;2023-07-24T05:24:15;1.87;;;1.60;;
10045;SDS011;5063;50.878;4.742;2023-07-24T05:26:41;1.50;;;1.40;;
10045;SDS011;5063;50.878;4.742;2023-07-24T05:29:07;3.60;;;1.30;;
10045;SDS011;5063;50.878;4.742;2023-07-24T05:31:34;1.98;;;1.88;;
10045;SDS011;5063;50.878;4.742;2023-07-24T05:34:00;2.13;;;1.73;;
10045;SDS011;5063;50.878;4.742;2023-07-24T05:36:26;4.10;;;1.70;;
10045;SDS011;5063;50.878;4.742;2023-07-24T05:38:52;2.20;;;1.90;;
10045;SDS011;5063;50.878;4.742;2023-07-24T05:41:18;1.88;;;1.77;;
10045;SDS011;5063;50.878;4.742;2023-07-24T05:43:43;2.75;;;1.75;;
10045;SDS011;5063;50.878;4.742;2023-07-24T05:46:09;2.60;;;2.30;;
10045;SDS011;5063;50.878;4.742;2023-07-24T05:48:35;2.77;;;2.27;;
10045;SDS011;5063;50.878;4.742;2023-07-24T05:51:00;2.43;;;2.23;;
10045;SDS011;5063;50.878;4.742;2023-07-24T05:53:26;2.30;;;2.10;;
10045;SDS011;5063;50.878;4.742;2023-07-24T05:55:58;2.20;;;2.00;;
10045;SDS011;5063;50.878;4.742;2023-07-24T05:58:25;2.63;;;2.20;;
10045;SDS011;5063;50.878;4.742;2023-07-24T06:00:51;2.70;;;2.00;;
10045;SDS011;5063;50.878;4.742;2023-07-24T06:03:17;2.30;;;2.10;;
10045;SDS011;5063;50.878;4.742;2023-07-24T06:05:42;2.70;;;2.00;;
10045;SDS011;5063;50.878;4.742;2023-07-24T06:08:08;2.93;;;1.80;;
10045;SDS011;5063;50.878;4.742;2023-07-24T06:10:36;2.13;;;1.93;;
10045;SDS011;5063;50.878;4.742;2023-07-24T06:13:01;1.98;;;1.80;;
10045;SDS011;5063;50.878;4.742;2023-07-24T06:15:27;1.98;;;1.80;;
10045;SDS011;5063;50.878;4.742;2023-07-24T06:17:53;2.25;;;1.90;;
10045;SDS011;5063;50.878;4.742;2023-07-24T06:20:19;2.95;;;2.30;;
10045;SDS011;5063;50.878;4.742;2023-07-24T06:22:44;1.92;;;1.83;;
10045;SDS011;5063;50.878;4.742;2023-07-24T06:25:10;2.33;;;1.80;;
10045;SDS011;5063;50.878;4.742;2023-07-24T06:27:36;2.33;;;2.00;;
10045;SDS011;5063;50.878;4.742;2023-07-24T06:30:01;2.00;;;1.80;;
10045;SDS011;5063;50.878;4.742;2023-07-24T06:32:28;4.93;;;1.85;;
10045;SDS011;5063;50.878;4.742;2023-07-24T06:34:53;2.40;;;1.90;;
10045;SDS011;5063;50.878;4.742;2023-07-24T06:37:19;3.33;;;1.70;;
10045;SDS011;5063;50.878;4.742;2023-07-24T06:39:45;1.75;;;1.65;;
10045;SDS011;5063;50.878;4.742;2023-07-24T06:42:11;4.13;;;1.65;;
10045;SDS011;5063;50.878;4.742;2023-07-24T06:44:36;2.20;;;2.00;;
10045;SDS011;5063;50.878;4.742;2023-07-24T06:47:02;3.13;;;1.67;;
10045;SDS011;5063;50.878;4.742;2023-07-24T06:49:28;4.82;;;1.90;;
10045;SDS011;5063;50.878;4.742;2023-07-24T06:51:54;2.05;;;1.83;;
10045;SDS011;5063;50.878;4.742;2023-07-24T06:54:19;2.20;;;2.00;;
10045;SDS011;5063;50.878;4.742;2023-07-24T06:56:45;2.72;;;1.83;;
10045;SDS011;5063;50.878;4.742;2023-07-24T06:59:11;2.38;;;2.03;;
10045;SDS011;5063;50.878;4.742;2023-07-24T07:01:36;2.22;;;2.03;;
10045;SDS011;5063;50.878;4.742;2023-07-24T07:04:02;2.17;;;1.95;;
10045;SDS011;5063;50.878;4.742;2023-07-24T07:06:28;2.40;;;2.10;;
10045;SDS011;5063;50.878;4.742;2023-07-24T07:08:53;1.90;;;1.77;;
10045;SDS011;5063;50.878;4.742;2023-07-24T07:11:19;3.58;;;1.70;;
10045;SDS011;5063;50.878;4.742;2023-07-24T07:13:45;2.42;;;1.98;;
10045;SDS011;5063;50.878;4.742;2023-07-24T07:16:11;2.10;;;1.90;;
10045;SDS011;5063;50.878;4.742;2023-07-24T07:18:36;2.15;;;1.77;;
10045;SDS011;5063;50.878;4.742;2023-07-24T07:21:02;3.10;;;1.75;;
10045;SDS011;5063;50.878;4.742;2023-07-24T07:23:29;1.85;;;1.75;;
10045;SDS011;5063;50.878;4.742;2023-07-24T07:25:54;2.03;;;1.65;;
10045;SDS011;5063;50.878;4.742;2023-07-24T07:28:20;2.05;;;1.85;;
10045;SDS011;5063;50.878;4.742;2023-07-24T07:30:46;4.03;;;1.88;;
10045;SDS011;5063;50.878;4.742;2023-07-24T07:33:12;2.35;;;1.85;;
10045;SDS011;5063;50.878;4.742;2023-07-24T07:35:38;2.42;;;1.67;;
10045;SDS011;5063;50.878;4.742;2023-07-24T07:38:03;1.98;;;1.80;;
10045;SDS011;5063;50.878;4.742;2023-07-24T07:40:29;2.95;;;1.90;;
10045;SDS011;5063;50.878;4.742;2023-07-24T07:42:55;1.75;;;1.65;;
10045;SDS011;5063;50.878;4.742;2023-07-24T07:45:22;2.53;;;1.80;;
10045;SDS011;5063;50.878;4.742;2023-07-24T07:47:48;2.35;;;2.15;;
10045;SDS011;5063;50.878;4.742;2023-07-24T07:50:14;2.65;;;2.00;;
10045;SDS011;5063;50.878;4.742;2023-07-24T07:52:40;3.17;;;2.00;;
10045;SDS011;5063;50.878;4.742;2023-07-24T07:55:06;2.78;;;2.00;;
10045;SDS011;5063;50.878;4.742;2023-07-24T07:57:36;2.00;;;1.83;;
10045;SDS011;5063;50.878;4.742;2023-07-24T08:00:02;2.30;;;1.95;;
10045;SDS011;5063;50.878;4.742;2023-07-24T08:02:29;3.00;;;2.00;;
10045;SDS011;5063;50.878;4.742;2023-07-24T08:04:57;2.33;;;2.13;;
10045;SDS011;5063;50.878;4.742;2023-07-24T08:07:22;2.20;;;2.00;;
10045;SDS011;5063;50.878;4.742;2023-07-24T08:09:48;2.30;;;2.08;;
10045;SDS011;5063;50.878;4.742;2023-07-24T08:12:14;2.00;;;1.80;;
10045;SDS011;5063;50.878;4.742;2023-07-24T08:14:40;1.90;;;1.80;;
10045;SDS011;5063;50.878;4.742;2023-07-24T08:17:05;2.85;;;2.03;;
10045;SDS011;5063;50.878;4.742;2023-07-24T08:19:31;2.10;;;1.80;;
10045;SDS011;5063;50.878;4.742;2023-07-24T08:21:57;2.10;;;1.92;;
10045;SDS011;5063;50.878;4.742;2023-07-24T08:24:22;2.55;;;1.85;;
10045;SDS011;5063;50.878;4.742;2023-07-24T08:26:48;2.72;;;1.83;;
10045;SDS011;5063;50.878;4.742;2023-07-24T08:29:14;2.30;;;2.10;;
10045;SDS011;5063;50.878;4.742;2023-07-24T08:31:40;2.30;;;2.10;;
10045;SDS011;5063;50.878;4.742;2023-07-24T08:34:05;2.35;;;2.13;;
10045;SDS011;5063;50.878;4.742;2023-07-24T08:36:31;2.45;;;2.00;;
10045;SDS011;5063;50.878;4.742;2023-07-24T08:38:57;2.17;;;1.98;;
10045;SDS011;5063;50.878;4.742;2023-07-24T08:41:22;3.95;;;2.15;;
10045;SDS011;5063;50.878;4.742;2023-07-24T08:43:48;2.08;;;1.80;;
10045;SDS011;5063;50.878;4.742;2023-07-24T08:46:16;2.75;;;1.90;;
10045;SDS011;5063;50.878;4.742;2023-07-24T08:48:43;1.95;;;1.75;;
10045;SDS011;5063;50.878;4.742;2023-07-24T08:51:10;2.70;;;1.73;;
10045;SDS011;5063;50.878;4.742;2023-07-24T08:53:38;4.63;;;1.67;;
10045;SDS011;5063;50.878;4.742;2023-07-24T08:56:07;4.95;;;2.20;;
10045;SDS011;5063;50.878;4.742;2023-07-24T08:58:34;1.92;;;1.77;;
10045;SDS011;5063;50.878;4.742;2023-07-24T09:01:01;3.35;;;1.80;;
10045;SDS011;5063;50.878;4.742;2023-07-24T09:03:28;2.85;;;2.15;;
10045;SDS011;5063;50.878;4.742;2023-07-24T09:05:55;3.65;;;1.80;;
10045;SDS011;5063;50.878;4.742;2023-07-24T09:08:31;2.25;;;2.05;;
10045;SDS011;5063;50.878;4.742;2023-07-24T09:10:58;3.45;;;2.13;;
10045;SDS011;5063;50.878;4.742;2023-07-24T09:13:28;3.00;;;1.88;;
10045;SDS011;5063;50.878;4.742;2023-07-24T09:15:54;3.05;;;2.28;;
10045;SDS011;5063;50.878;4.742;2023-07-24T09:18:20;3.70;;;2.17;;
10045;SDS011;5063;50.878;4.742;2023-07-24T09:20:47;4.70;;;2.90;;
10045;SDS011;5063;50.878;4.742;2023-07-24T09:23:13;5.03;;;2.70;;
10045;SDS011;5063;50.878;4.742;2023-07-24T09:25:49;3.65;;;2.63;;
10045;SDS011;5063;50.878;4.742;2023-07-24T09:28:22;4.10;;;2.70;;
10045;SDS011;5063;50.878;4.742;2023-07-24T09:30:54;3.97;;;2.80;;
10045;SDS011;5063;50.878;4.742;2023-07-24T09:36:19;5.07;;;3.30;;
10045;SDS011;5063;50.878;4.742;2023-07-24T09:38:48;6.57;;;3.00;;
10045;SDS011;5063;50.878;4.742;2023-07-24T09:41:26;3.67;;;2.65;;
10045;SDS011;5063;50.878;4.742;2023-07-24T09:43:58;3.30;;;2.45;;
10045;SDS011;5063;50.878;4.742;2023-07-24T09:46:24;4.68;;;3.03;;
10045;SDS011;5063;50.878;4.742;2023-07-24T09:48:50;6.60;;;3.05;;
10045;SDS011;5063;50.878;4.742;2023-07-24T09:51:16;3.22;;;2.60;;
10045;SDS011;5063;50.878;4.742;2023-07-24T09:53:43;4.68;;;3.20;;
10045;SDS011;5063;50.878;4.742;2023-07-24T09:56:20;4.57;;;3.17;;
10045;SDS011;5063;50.878;4.742;2023-07-24T09:58:47;5.78;;;3.22;;
10045;SDS011;5063;50.878;4.742;2023-07-24T10:01:19;3.53;;;2.75;;
10045;SDS011;5063;50.878;4.742;2023-07-24T10:03:46;6.77;;;2.90;;
10045;SDS011;5063;50.878;4.742;2023-07-24T10:06:13;3.90;;;2.72;;
10045;SDS011;5063;50.878;4.742;2023-07-24T10:08:42;3.78;;;3.45;;
10045;SDS011;5063;50.878;4.742;2023-07-24T10:11:12;3.60;;;2.83;;
10045;SDS011;5063;50.878;4.742;2023-07-24T10:13:39;3.88;;;2.50;;
10045;SDS011;5063;50.878;4.742;2023-07-24T10:16:06;3.35;;;3.00;;
10045;SDS011;5063;50.878;4.742;2023-07-24T10:18:33;3.60;;;2.40;;
10045;SDS011;5063;50.878;4.742;2023-07-24T10:21:06;2.65;;;2.42;;
10045;SDS011;5063;50.878;4.742;2023-07-24T10:23:34;3.28;;;2.42;;
10045;SDS011;5063;50.878;4.742;2023-07-24T10:26:04;3.42;;;2.20;;
10045;SDS011;5063;50.878;4.742;2023-07-24T10:28:34;3.63;;;2.25;;
10045;SDS011;5063;50.878;4.742;2023-07-24T10:31:04;2.30;;;1.98;;
10045;SDS011;5063;50.878;4.742;2023-07-24T10:33:52;2.80;;;2.50;;
10045;SDS011;5063;50.878;4.742;2023-07-24T10:36:22;4.65;;;2.47;;
10045;SDS011;5063;50.878;4.742;2023-07-24T10:38:53;4.85;;;2.50;;
10045;SDS011;5063;50.878;4.742;2023-07-24T10:41:20;3.10;;;2.50;;
10045;SDS011;5063;50.878;4.742;2023-07-24T10:43:49;3.00;;;2.10;;
10045;SDS011;5063;50.878;4.742;2023-07-24T10:46:18;3.25;;;2.55;;
10045;SDS011;5063;50.878;4.742;2023-07-24T10:48:45;2.58;;;2.38;;
10045;SDS011;5063;50.878;4.742;2023-07-24T10:51:16;3.60;;;2.20;;
10045;SDS011;5063;50.878;4.742;2023-07-24T10:53:45;2.65;;;2.20;;
10045;SDS011;5063;50.878;4.742;2023-07-24T10:56:15;2.40;;;2.03;;
10045;SDS011;5063;50.878;4.742;2023-07-24T10:58:42;2.20;;;1.98;;
10045;SDS011;5063;50.878;4.742;2023-07-24T11:01:08;2.17;;;1.98;;
10045;SDS011;5063;50.878;4.742;2023-07-24T11:03:36;4.53;;;2.25;;
10045;SDS011;5063;50.878;4.742;2023-07-24T11:06:11;2.33;;;2.13;;
10045;SDS011;5063;50.878;4.742;2023-07-24T11:08:39;3.33;;;2.10;;
10045;SDS011;5063;50.878;4.742;2023-07-24T11:11:07;2.00;;;1.85;;
10045;SDS011;5063;50.878;4.742;2023-07-24T11:13:33;3.13;;;2.17;;
10045;SDS011;5063;50.878;4.742;2023-07-24T11:16:06;3.35;;;2.22;;
10045;SDS011;5063;50.878;4.742;2023-07-24T11:18:32;3.88;;;2.17;;
10045;SDS011;5063;50.878;4.742;2023-07-24T11:21:08;2.20;;;2.00;;
10045;SDS011;5063;50.878;4.742;2023-07-24T11:23:36;3.58;;;2.20;;
10045;SDS011;5063;50.878;4.742;2023-07-24T11:26:03;2.63;;;2.17;;
10045;SDS011;5063;50.878;4.742;2023-07-24T11:28:38;2.30;;;2.10;;
10045;SDS011;5063;50.878;4.742;2023-07-24T11:31:05;2.42;;;2.17;;
10045;SDS011;5063;50.878;4.742;2023-07-24T11:33:30;2.95;;;2.30;;
10045;SDS011;5063;50.878;4.742;2023-07-24T11:35:56;2.53;;;1.88;;
10045;SDS011;5063;50.878;4.742;2023-07-24T11:38:23;2.08;;;1.88;;
10045;SDS011;5063;50.878;4.742;2023-07-24T11:40:48;1.98;;;1.88;;
10045;SDS011;5063;50.878;4.742;2023-07-24T11:43:19;2.10;;;1.90;;
10045;SDS011;5063;50.878;4.742;2023-07-24T11:45:47;2.50;;;2.30;;
10045;SDS011;5063;50.878;4.742;2023-07-24T11:48:19;2.65;;;2.30;;
10045;SDS011;5063;50.878;4.742;2023-07-24T11:50:47;3.40;;;2.17;;
10045;SDS011;5063;50.878;4.742;2023-07-24T11:53:33;4.20;;;2.55;;
10045;SDS011;5063;50.878;4.742;2023-07-24T11:55:59;3.47;;;2.92;;
10045;SDS011;5063;50.878;4.742;2023-07-24T11:58:28;5.70;;;2.97;;
10045;SDS011;5063;50.878;4.742;2023-07-24T12:00:54;2.83;;;2.47;;
10045;SDS011;5063;50.878;4.742;2023-07-24T12:03:25;2.75;;;2.53;;
10045;SDS011;5063;50.878;4.742;2023-07-24T12:05:51;4.68;;;2.97;;
10045;SDS011;5063;50.878;4.742;2023-07-24T12:08:23;2.75;;;2.53;;
10045;SDS011;5063;50.878;4.742;2023-07-24T12:10:56;3.08;;;2.58;;
10045;SDS011;5063;50.878;4.742;2023-07-24T12:13:21;3.70;;;2.58;;
10045;SDS011;5063;50.878;4.742;2023-07-24T12:15:47;2.67;;;2.47;;
10045;SDS011;5063;50.878;4.742;2023-07-24T12:18:14;5.18;;;2.75;;
10045;SDS011;5063;50.878;4.742;2023-07-24T12:20:40;2.70;;;2.50;;
10045;SDS011;5063;50.878;4.742;2023-07-24T12:23:06;4.53;;;3.17;;
10045;SDS011;5063;50.878;4.742;2023-07-24T12:25:31;3.10;;;2.60;;
10045;SDS011;5063;50.878;4.742;2023-07-24T12:27:57;2.97;;;2.67;;
10045;SDS011;5063;50.878;4.742;2023-07-24T12:30:23;5.90;;;3.28;;
10045;SDS011;5063;50.878;4.742;2023-07-24T12:32:49;4.65;;;2.80;;
10045;SDS011;5063;50.878;4.742;2023-07-24T12:35:15;3.13;;;2.83;;
10045;SDS011;5063;50.878;4.742;2023-07-24T12:37:42;2.95;;;2.70;;
10045;SDS011;5063;50.878;4.742;2023-07-24T12:40:11;3.47;;;2.67;;
10045;SDS011;5063;50.878;4.742;2023-07-24T12:42:37;4.28;;;2.67;;
10045;SDS011;5063;50.878;4.742;2023-07-24T12:45:03;3.15;;;2.85;;
10045;SDS011;5063;50.878;4.742;2023-07-24T12:47:30;4.30;;;3.08;;
10045;SDS011;5063;50.878;4.742;2023-07-24T12:49:56;3.58;;;2.90;;
10045;SDS011;5063;50.878;4.742;2023-07-24T12:52:23;3.90;;;3.30;;
10045;SDS011;5063;50.878;4.742;2023-07-24T12:54:49;3.72;;;3.42;;
10045;SDS011;5063;50.878;4.742;2023-07-24T12:57:15;4.88;;;3.22;;
10045;SDS011;5063;50.878;4.742;2023-07-24T12:59:41;5.93;;;2.85;;
10045;SDS011;5063;50.878;4.742;2023-07-24T13:02:06;3.63;;;3.25;;
10045;SDS011;5063;50.878;4.742;2023-07-24T13:04:32;5.57;;;3.55;;
10045;SDS011;5063;50.878;4.742;2023-07-24T13:06:58;4.10;;;3.00;;
10045;SDS011;5063;50.878;4.742;2023-07-24T13:09:27;5.88;;;3.50;;
10045;SDS011;5063;50.878;4.742;2023-07-24T13:11:52;3.85;;;3.30;;
10045;SDS011;5063;50.878;4.742;2023-07-24T13:14:19;3.85;;;3.55;;
10045;SDS011;5063;50.878;4.742;2023-07-24T13:16:46;4.00;;;3.30;;
10045;SDS011;5063;50.878;4.742;2023-07-24T13:19:12;3.78;;;3.10;;
10045;SDS011;5063;50.878;4.742;2023-07-24T13:21:37;3.65;;;3.13;;
10045;SDS011;5063;50.878;4.742;2023-07-24T13:24:05;4.47;;;3.33;;
10045;SDS011;5063;50.878;4.742;2023-07-24T13:26:31;3.28;;;2.97;;
10045;SDS011;5063;50.878;4.742;2023-07-24T13:28:57;6.28;;;3.30;;
10045;SDS011;5063;50.878;4.742;2023-07-24T13:31:23;6.95;;;3.08;;
10045;SDS011;5063;50.878;4.742;2023-07-24T13:33:48;3.72;;;3.40;;
10045;SDS011;5063;50.878;4.742;2023-07-24T13:36:14;4.80;;;3.10;;
10045;SDS011;5063;50.878;4.742;2023-07-24T13:38:40;4.90;;;3.13;;
10045;SDS011;5063;50.878;4.742;2023-07-24T13:41:07;4.13;;;2.67;;
10045;SDS011;5063;50.878;4.742;2023-07-24T13:43:33;4.28;;;2.75;;
10045;SDS011;5063;50.878;4.742;2023-07-24T13:45:59;4.68;;;2.83;;
10045;SDS011;5063;50.878;4.742;2023-07-24T13:48:28;7.00;;;3.55;;
10045;SDS011;5063;50.878;4.742;2023-07-24T13:50:57;2.85;;;2.58;;
10045;SDS011;5063;50.878;4.742;2023-07-24T13:53:23;3.20;;;2.63;;
10045;SDS011;5063;50.878;4.742;2023-07-24T13:55:49;3.38;;;2.80;;
10045;SDS011;5063;50.878;4.742;2023-07-24T13:58:15;3.47;;;2.92;;
10045;SDS011;5063;50.878;4.742;2023-07-24T14:00:41;3.13;;;2.53;;
10045;SDS011;5063;50.878;4.742;2023-07-24T14:03:06;4.07;;;2.70;;
10045;SDS011;5063;50.878;4.742;2023-07-24T14:05:35;3.90;;;3.00;;
10045;SDS011;5063;50.878;4.742;2023-07-24T14:08:04;4.78;;;2.90;;
10045;SDS011;5063;50.878;4.742;2023-07-24T14:10:30;4.07;;;2.90;;
10045;SDS011;5063;50.878;4.742;2023-07-24T14:12:56;4.35;;;2.55;;
10045;SDS011;5063;50.878;4.742;2023-07-24T14:15:21;4.43;;;2.80;;
10045;SDS011;5063;50.878;4.742;2023-07-24T14:17:47;2.85;;;2.33;;
10045;SDS011;5063;50.878;4.742;2023-07-24T14:20:13;4.60;;;3.28;;
10045;SDS011;5063;50.878;4.742;2023-07-24T14:22:38;4.43;;;2.53;;
10045;SDS011;5063;50.878;4.742;2023-07-24T14:25:04;4.03;;;2.45;;
10045;SDS011;5063;50.878;4.742;2023-07-24T14:27:33;3.00;;;2.70;;
10045;SDS011;5063;50.878;4.742;2023-07-24T14:29:59;5.38;;;2.75;;
10045;SDS011;5063;50.878;4.742;2023-07-24T14:32:25;3.80;;;2.65;;
10045;SDS011;5063;50.878;4.742;2023-07-24T14:34:51;2.95;;;2.50;;
10045;SDS011;5063;50.878;4.742;2023-07-24T14:37:18;2.67;;;2.47;;
10045;SDS011;5063;50.878;4.742;2023-07-24T14:39:44;2.58;;;2.38;;
10045;SDS011;5063;50.878;4.742;2023-07-24T14:42:10;3.53;;;2.42;;
10045;SDS011;5063;50.878;4.742;2023-07-24T14:44:36;5.30;;;2.75;;
10045;SDS011;5063;50.878;4.742;2023-07-24T14:47:02;2.47;;;2.28;;
10045;SDS011;5063;50.878;4.742;2023-07-24T14:49:28;2.85;;;2.08;;
10045;SDS011;5063;50.878;4.742;2023-07-24T14:51:54;2.58;;;2.38;;
10045;SDS011;5063;50.878;4.742;2023-07-24T14:54:19;3.95;;;2.30;;
10045;SDS011;5063;50.878;4.742;2023-07-24T14:56:45;3.67;;;2.42;;
10045;SDS011;5063;50.878;4.742;2023-07-24T14:59:11;5.20;;;2.58;;
10045;SDS011;5063;50.878;4.742;2023-07-24T15:01:36;3.03;;;2.72;;
10045;SDS011;5063;50.878;4.742;2023-07-24T15:04:02;2.60;;;2.00;;
10045;SDS011;5063;50.878;4.742;2023-07-24T15:06:28;2.35;;;2.15;;